BAW25K VNKT-VQPR
Flight info
| Callsign | BAW25K |
|---|---|
| Flight time | 0h 41m |
| Altitude | 33000 |
| Route | IGRIS1D KIMTI G348 SUBSU DCT TAKTI DCT PRO |
| Aircraft | A35K/H-SDE2E3GHIJ3J4J5LM1ORWXY/LB1D1 |
Departure
| Time | 2025-12-31 05:42 |
|---|---|
| Airport | Tribhuvan International Airport (VNKT) |
Arrival
| Time | 2025-12-31 06:23 |
|---|---|
| Airport | Paro International Airport (VQPR) |
| Time | Latitude | Longitude | Altitude | Speed | Heading |
|---|---|---|---|---|---|
| 2025-12-31 05:09 | 27.69816 | 85.35772 | 4342 ft | 0 kts | 291° |
| 2025-12-31 05:26 | 27.69817 | 85.35825 | 4359 ft | 2 kts | 245° |
| 2025-12-31 05:26 | 27.69836 | 85.35856 | 4354 ft | 2 kts | 225° |
| 2025-12-31 05:27 | 27.69861 | 85.35879 | 4354 ft | 2 kts | 215° |
| 2025-12-31 05:27 | 27.69889 | 85.35899 | 4355 ft | 2 kts | 208° |
| 2025-12-31 05:28 | 27.69917 | 85.35914 | 4356 ft | 1 kts | 203° |
| 2025-12-31 05:28 | 27.69923 | 85.35916 | 4356 ft | 0 kts | 202° |
| 2025-12-31 05:30 | 27.69912 | 85.35911 | 4356 ft | 4 kts | 202° |
| 2025-12-31 05:30 | 27.69874 | 85.35894 | 4355 ft | 8 kts | 202° |
| 2025-12-31 05:31 | 27.69724 | 85.35824 | 4419 ft | 15 kts | 202° |
| 2025-12-31 05:31 | 27.69508 | 85.35725 | 4417 ft | 18 kts | 202° |
| 2025-12-31 05:32 | 27.69295 | 85.35626 | 4403 ft | 14 kts | 202° |
| 2025-12-31 05:32 | 27.69228 | 85.35596 | 4404 ft | 0 kts | 202° |
| 2025-12-31 05:33 | 27.69192 | 85.35580 | 4400 ft | 7 kts | 201° |
| 2025-12-31 05:33 | 27.69145 | 85.35561 | 4399 ft | 4 kts | 196° |
| 2025-12-31 05:34 | 27.69139 | 85.35560 | 4400 ft | 3 kts | 195° |
| 2025-12-31 05:34 | 27.69120 | 85.35558 | 4402 ft | 0 kts | 178° |
| 2025-12-31 05:37 | 27.69080 | 85.35581 | 4338 ft | 10 kts | 134° |
| 2025-12-31 05:38 | 27.68612 | 85.35443 | 4335 ft | 25 kts | 200° |
| 2025-12-31 05:39 | 27.68427 | 85.35334 | 4327 ft | 4 kts | 145° |
| 2025-12-31 05:39 | 27.68445 | 85.35359 | 4327 ft | 3 kts | 26° |
| 2025-12-31 05:40 | 27.68455 | 85.35364 | 4323 ft | 0 kts | 25° |
| 2025-12-31 05:40 | 27.68689 | 85.35474 | 4336 ft | 77 kts | 22° |
| 2025-12-31 05:41 | 27.70593 | 85.36322 | 4809 ft | 189 kts | 22° |
| 2025-12-31 05:41 | 27.71874 | 85.36884 | 5768 ft | 207 kts | 21° |
| 2025-12-31 05:41 | 27.74063 | 85.38991 | 7436 ft | 220 kts | 76° |
| 2025-12-31 05:42 | 27.74694 | 85.44151 | 9084 ft | 231 kts | 111° |
| 2025-12-31 05:42 | 27.73763 | 85.45659 | 9426 ft | 244 kts | 138° |
| 2025-12-31 05:43 | 27.68824 | 85.48246 | 10016 ft | 290 kts | 160° |
| 2025-12-31 05:44 | 27.65311 | 85.50612 | 10020 ft | 299 kts | 137° |
| 2025-12-31 05:44 | 27.62941 | 85.54576 | 10366 ft | 323 kts | 112° |
| 2025-12-31 05:45 | 27.61516 | 85.59618 | 10892 ft | 352 kts | 106° |
| 2025-12-31 05:45 | 27.60824 | 85.62298 | 11276 ft | 360 kts | 106° |
| 2025-12-31 05:45 | 27.59375 | 85.67794 | 12229 ft | 371 kts | 108° |
| 2025-12-31 05:46 | 27.56145 | 85.75894 | 13688 ft | 385 kts | 117° |
| 2025-12-31 05:47 | 27.53720 | 85.81350 | 14694 ft | 391 kts | 117° |
| 2025-12-31 05:47 | 27.51656 | 85.87067 | 15684 ft | 398 kts | 105° |
| 2025-12-31 05:48 | 27.50901 | 85.93265 | 16732 ft | 403 kts | 92° |
| 2025-12-31 05:48 | 27.50690 | 85.99492 | 18311 ft | 393 kts | 91° |
| 2025-12-31 05:48 | 27.50586 | 86.02595 | 18598 ft | 402 kts | 91° |
| 2025-12-31 05:49 | 27.50351 | 86.09043 | 19088 ft | 420 kts | 91° |
| 2025-12-31 05:49 | 27.50100 | 86.15692 | 19771 ft | 429 kts | 91° |
| 2025-12-31 05:50 | 27.49671 | 86.25894 | 21000 ft | 440 kts | 94° |
| 2025-12-31 05:51 | 27.48686 | 86.32761 | 21707 ft | 449 kts | 101° |
| 2025-12-31 05:51 | 27.47305 | 86.39707 | 22395 ft | 459 kts | 102° |
| 2025-12-31 05:52 | 27.45873 | 86.46727 | 23414 ft | 456 kts | 102° |
| 2025-12-31 05:52 | 27.45183 | 86.50189 | 24032 ft | 450 kts | 102° |
| 2025-12-31 05:52 | 27.43851 | 86.57016 | 24900 ft | 450 kts | 101° |
| 2025-12-31 05:55 | 27.37380 | 86.90371 | 26335 ft | 515 kts | 101° |
| 2025-12-31 05:56 | 27.31608 | 87.18483 | 27984 ft | 541 kts | 111° |
| 2025-12-31 05:59 | 27.14511 | 87.50562 | 30153 ft | 568 kts | 125° |
| 2025-12-31 06:00 | 26.99945 | 87.76819 | 30084 ft | 562 kts | 125° |
| 2025-12-31 06:03 | 26.81996 | 88.08925 | 28952 ft | 535 kts | 125° |
| 2025-12-31 06:04 | 26.71593 | 88.33563 | 26298 ft | 454 kts | 83° |
| 2025-12-31 06:05 | 26.75668 | 88.45473 | 23959 ft | 387 kts | 51° |
| 2025-12-31 06:06 | 26.79735 | 88.52597 | 22888 ft | 341 kts | 50° |
| 2025-12-31 06:06 | 26.81010 | 88.54839 | 22810 ft | 341 kts | 50° |
| 2025-12-31 06:07 | 26.83553 | 88.59389 | 23064 ft | 347 kts | 51° |
| 2025-12-31 06:07 | 26.86052 | 88.63951 | 23080 ft | 342 kts | 51° |
| 2025-12-31 06:08 | 26.88534 | 88.68514 | 23081 ft | 342 kts | 52° |
| 2025-12-31 06:08 | 26.90992 | 88.73063 | 23080 ft | 341 kts | 52° |
| 2025-12-31 06:09 | 26.93445 | 88.77608 | 23081 ft | 340 kts | 52° |
| 2025-12-31 06:09 | 26.95898 | 88.82140 | 23078 ft | 340 kts | 52° |
| 2025-12-31 06:10 | 26.97960 | 88.86957 | 23077 ft | 348 kts | 67° |
| 2025-12-31 06:10 | 26.98953 | 88.92295 | 22775 ft | 351 kts | 78° |
| 2025-12-31 06:11 | 27.00281 | 89.00216 | 21907 ft | 338 kts | 60° |
| 2025-12-31 06:11 | 27.01562 | 89.02406 | 21456 ft | 339 kts | 45° |
| 2025-12-31 06:12 | 27.04717 | 89.06442 | 21269 ft | 344 kts | 43° |
| 2025-12-31 06:12 | 27.07899 | 89.10409 | 20857 ft | 341 kts | 43° |
| 2025-12-31 06:13 | 27.11044 | 89.14349 | 20192 ft | 339 kts | 44° |
| 2025-12-31 06:13 | 27.12603 | 89.16314 | 19920 ft | 336 kts | 44° |
| 2025-12-31 06:14 | 27.20627 | 89.20370 | 18729 ft | 313 kts | 12° |
| 2025-12-31 06:15 | 27.24674 | 89.21609 | 18163 ft | 291 kts | 12° |
| 2025-12-31 06:15 | 27.26609 | 89.22213 | 17733 ft | 289 kts | 13° |
| 2025-12-31 06:15 | 27.30461 | 89.23428 | 16661 ft | 286 kts | 13° |
| 2025-12-31 06:16 | 27.34170 | 89.24615 | 15617 ft | 267 kts | 14° |
| 2025-12-31 06:17 | 27.39195 | 89.26234 | 14417 ft | 233 kts | 13° |
| 2025-12-31 06:17 | 27.40769 | 89.26328 | 14075 ft | 223 kts | 349° |
| 2025-12-31 06:17 | 27.43715 | 89.25847 | 13538 ft | 205 kts | 1° |
| 2025-12-31 06:18 | 27.47419 | 89.28145 | 12503 ft | 209 kts | 55° |
| 2025-12-31 06:19 | 27.48483 | 89.31156 | 11456 ft | 214 kts | 78° |
| 2025-12-31 06:19 | 27.47585 | 89.34315 | 10122 ft | 218 kts | 121° |
| 2025-12-31 06:20 | 27.45212 | 89.36465 | 8951 ft | 218 kts | 139° |
| 2025-12-31 06:20 | 27.44388 | 89.39290 | 8596 ft | 184 kts | 114° |
| 2025-12-31 06:21 | 27.42677 | 89.41073 | 8042 ft | 163 kts | 155° |
| 2025-12-31 06:21 | 27.41657 | 89.41639 | 7625 ft | 163 kts | 153° |
| 2025-12-31 06:21 | 27.39956 | 89.42699 | 7324 ft | 74 kts | 150° |
| 2025-12-31 06:22 | 27.39578 | 89.42946 | 7314 ft | 18 kts | 150° |
| 2025-12-31 06:23 | 27.39454 | 89.43016 | 7307 ft | 2 kts | 93° |
| 2025-12-31 06:23 | 27.39461 | 89.43023 | 7307 ft | 1 kts | 42° |
| 2025-12-31 06:24 | 27.39474 | 89.43020 | 7307 ft | 3 kts | 342° |
| 2025-12-31 06:24 | 27.39699 | 89.42876 | 7318 ft | 24 kts | 330° |
| 2025-12-31 06:24 | 27.39837 | 89.42785 | 7323 ft | 22 kts | 330° |
| 2025-12-31 06:25 | 27.40088 | 89.42623 | 7323 ft | 21 kts | 330° |
| 2025-12-31 06:25 | 27.40439 | 89.42401 | 7342 ft | 29 kts | 330° |
| 2025-12-31 06:26 | 27.40580 | 89.42221 | 7349 ft | 4 kts | 274° |
| 2025-12-31 06:27 | 27.40667 | 89.42147 | 7354 ft | 10 kts | 320° |